createdAt,value
2023-02-02T00:00:45.813Z,90.39453125
2023-02-02T00:01:45.803Z,90.4599609375
2023-02-02T00:02:46.198Z,90.6015625
2023-02-02T00:03:46.178Z,90.8115234375
2023-02-02T00:04:45.891Z,90.85546875
2023-02-02T00:05:45.813Z,90.9091796875
2023-02-02T00:06:45.870Z,90.8955078125
2023-02-02T00:07:48.182Z,91.0615234375
2023-02-02T00:08:45.911Z,91.236328125
2023-02-02T00:09:45.807Z,91.1240234375
2023-02-02T00:10:45.878Z,91.232421875
2023-02-02T00:11:45.815Z,91.443359375
2023-02-02T00:12:45.917Z,91.455078125
2023-02-02T00:13:45.825Z,91.3681640625
2023-02-02T00:14:45.784Z,91.4755859375
2023-02-02T00:15:45.835Z,91.3818359375
2023-02-02T00:16:45.825Z,91.23046875
2023-02-02T00:17:46.152Z,91.0439453125
2023-02-02T00:18:50.606Z,90.9736328125
2023-02-02T00:19:45.821Z,91.1484375
2023-02-02T00:20:45.932Z,91.1015625
2023-02-02T00:21:45.926Z,91.3408203125
2023-02-02T00:22:46.143Z,91.330078125
2023-02-02T00:23:45.872Z,91.484375
2023-02-02T00:24:45.884Z,91.6181640625
2023-02-02T00:25:45.891Z,91.60546875
2023-02-02T00:26:46.601Z,91.73828125
2023-02-02T00:27:46.150Z,91.693359375
2023-02-02T00:28:45.887Z,91.853515625
2023-02-02T00:29:48.156Z,91.83984375
2023-02-02T00:30:45.923Z,91.6982421875
2023-02-02T00:31:45.947Z,91.7958984375
2023-02-02T00:32:46.149Z,91.892578125
2023-02-02T00:33:46.147Z,92.0361328125
2023-02-02T00:34:45.938Z,92.2607421875
2023-02-02T00:35:45.918Z,92.08203125
2023-02-02T00:36:45.847Z,92.3134765625
2023-02-02T00:37:46.160Z,92.5166015625
2023-02-02T00:38:45.834Z,92.3271484375
2023-02-02T00:39:45.885Z,92.5302734375
2023-02-02T00:40:48.119Z,92.5107421875
2023-02-02T00:41:45.917Z,92.607421875
2023-02-02T00:42:46.153Z,92.7158203125
2023-02-02T00:43:45.772Z,92.736328125
2023-02-02T00:44:45.783Z,92.7421875
2023-02-02T00:45:46.038Z,92.7734375
2023-02-02T00:46:45.836Z,92.859375
2023-02-02T00:47:46.147Z,92.8857421875
2023-02-02T00:48:46.161Z,92.841796875
2023-02-02T00:49:45.893Z,92.9150390625
2023-02-02T00:50:45.868Z,92.9453125
2023-02-02T00:51:48.210Z,92.9453125
2023-02-02T00:52:46.154Z,92.958984375
2023-02-02T00:53:45.814Z,93.0029296875
2023-02-02T00:54:45.903Z,92.982421875
2023-02-02T00:55:45.807Z,92.9384765625
2023-02-02T00:56:45.827Z,93.017578125
2023-02-02T00:57:46.159Z,92.841796875
2023-02-02T00:58:45.946Z,92.9091796875
2023-02-02T00:59:45.833Z,92.865234375
2023-02-02T01:00:45.838Z,92.96875
2023-02-02T01:01:45.960Z,92.7646484375
2023-02-02T01:02:50.556Z,92.466796875
2023-02-02T01:03:46.143Z,92.6435546875
2023-02-02T01:04:45.803Z,92.6103515625
2023-02-02T01:05:45.839Z,92.6787109375
2023-02-02T01:06:45.839Z,92.4833984375
2023-02-02T01:07:46.148Z,92.474609375
2023-02-02T01:08:45.863Z,92.3662109375
2023-02-02T01:09:45.933Z,92.2783203125
2023-02-02T01:10:45.869Z,92.0595703125
2023-02-02T01:11:45.888Z,92.1015625
2023-02-02T01:12:46.150Z,92.189453125
2023-02-02T01:13:48.243Z,92.291015625
2023-02-02T01:14:45.791Z,92.314453125
2023-02-02T01:15:45.781Z,92.294921875
2023-02-02T01:16:45.878Z,92.3056640625
2023-02-02T01:17:46.154Z,92.31640625
2023-02-02T01:18:46.148Z,92.259765625
2023-02-02T01:19:45.853Z,92.376953125
2023-02-02T01:20:45.839Z,92.4765625
2023-02-02T01:21:45.916Z,92.5
2023-02-02T01:22:46.147Z,92.5205078125
2023-02-02T01:23:45.883Z,92.6767578125
2023-02-02T01:24:48.223Z,92.6015625
2023-02-02T01:25:45.901Z,92.6396484375
2023-02-02T01:26:45.908Z,92.8388671875
2023-02-02T01:27:46.158Z,93.0546875
2023-02-02T01:28:45.829Z,93.2451171875
2023-02-02T01:29:45.813Z,94.431640625
2023-02-02T01:30:45.816Z,96.193359375
2023-02-02T01:31:45.928Z,98.01171875
2023-02-02T01:32:46.151Z,98.990234375
2023-02-02T01:33:46.152Z,100
2023-02-02T01:34:45.831Z,100
2023-02-02T01:35:48.247Z,100
2023-02-02T01:36:45.920Z,100
2023-02-02T01:37:46.143Z,100
2023-02-02T01:38:45.890Z,100
2023-02-02T01:39:45.912Z,100
2023-02-02T01:40:45.871Z,100
2023-02-02T01:41:45.877Z,100
2023-02-02T01:42:46.163Z,100
2023-02-02T01:43:45.821Z,100
2023-02-02T01:44:45.915Z,100
2023-02-02T01:45:45.808Z,100
2023-02-02T01:46:48.155Z,100
2023-02-02T01:47:46.219Z,100
2023-02-02T01:48:46.153Z,100
2023-02-02T01:49:45.894Z,100
2023-02-02T01:50:45.854Z,100
2023-02-02T01:51:45.903Z,100
2023-02-02T01:52:46.153Z,100
2023-02-02T01:53:45.787Z,100
2023-02-02T01:54:45.921Z,100
2023-02-02T01:55:45.923Z,100
2023-02-02T01:56:45.901Z,100
2023-02-02T01:57:50.634Z,100
2023-02-02T01:58:45.804Z,100
2023-02-02T01:59:45.927Z,100
2023-02-02T02:00:47.082Z,100
2023-02-02T02:01:45.909Z,100
2023-02-02T02:02:46.282Z,100
2023-02-02T02:03:46.138Z,100
2023-02-02T02:04:45.792Z,100
2023-02-02T02:05:45.948Z,100
2023-02-02T02:06:45.826Z,100
2023-02-02T02:07:46.145Z,100
2023-02-02T02:08:48.148Z,100
2023-02-02T02:09:45.793Z,100
2023-02-02T02:10:45.791Z,100
2023-02-02T02:11:45.922Z,100
2023-02-02T02:12:46.157Z,100
2023-02-02T02:13:45.793Z,100
2023-02-02T02:14:45.886Z,100
2023-02-02T02:15:45.924Z,99.9365234375
2023-02-02T02:16:45.911Z,99.6171875
2023-02-02T02:17:46.143Z,99.2783203125
2023-02-02T02:18:46.149Z,99.2255859375
2023-02-02T02:19:48.233Z,98.9990234375
2023-02-02T02:20:45.799Z,98.857421875
2023-02-02T02:21:45.895Z,99.06640625
2023-02-02T02:22:46.155Z,98.912109375
2023-02-02T02:23:45.897Z,98.7294921875
2023-02-02T02:24:45.922Z,98.509765625
2023-02-02T02:25:45.934Z,98.3662109375
2023-02-02T02:26:46.067Z,98.3310546875
2023-02-02T02:27:46.169Z,98.3154296875
2023-02-02T02:28:45.813Z,98.1630859375
2023-02-02T02:29:45.885Z,98.21875
2023-02-02T02:30:48.207Z,97.8330078125
2023-02-02T02:31:45.993Z,97.9833984375
2023-02-02T02:32:46.143Z,97.9501953125
2023-02-02T02:33:46.144Z,97.9716796875
2023-02-02T02:34:45.864Z,97.9873046875
2023-02-02T02:35:45.931Z,97.9873046875
2023-02-02T02:36:45.888Z,97.927734375
2023-02-02T02:37:46.165Z,97.7412109375
2023-02-02T02:38:45.910Z,97.92578125
2023-02-02T02:39:45.820Z,97.9697265625
2023-02-02T02:40:45.914Z,97.892578125
2023-02-02T02:41:48.127Z,98.052734375
2023-02-02T02:42:46.148Z,98.20703125
2023-02-02T02:43:45.919Z,97.7373046875
2023-02-02T02:44:45.924Z,97.634765625
2023-02-02T02:45:45.793Z,97.533203125
2023-02-02T02:46:45.862Z,97.6083984375
2023-02-02T02:47:46.141Z,97.6640625
2023-02-02T02:48:46.166Z,97.7119140625
2023-02-02T02:49:45.880Z,97.7080078125
2023-02-02T02:50:45.878Z,98.0556640625
2023-02-02T02:51:45.911Z,97.9990234375
2023-02-02T02:52:50.605Z,98.072265625
2023-02-02T02:53:45.891Z,98.37109375
2023-02-02T02:54:45.891Z,98.267578125
2023-02-02T02:55:45.804Z,98.6640625
2023-02-02T02:56:45.822Z,98.6552734375
2023-02-02T02:57:46.163Z,98.990234375
2023-02-02T02:58:45.835Z,99.525390625
2023-02-02T02:59:45.919Z,100
2023-02-02T03:00:45.892Z,100
2023-02-02T03:01:45.938Z,100
2023-02-02T03:02:46.174Z,100
2023-02-02T03:03:50.660Z,100
2023-02-02T03:04:45.876Z,100
2023-02-02T03:05:45.881Z,100
2023-02-02T03:06:45.815Z,100
2023-02-02T03:07:46.145Z,100
2023-02-02T03:08:45.794Z,100
2023-02-02T03:09:45.857Z,100
2023-02-02T03:10:45.928Z,100
2023-02-02T03:11:45.873Z,100
2023-02-02T03:12:46.212Z,100
2023-02-02T03:13:45.826Z,100
2023-02-02T03:14:48.136Z,100
2023-02-02T03:15:45.911Z,100
2023-02-02T03:16:45.813Z,100
2023-02-02T03:17:46.152Z,100
2023-02-02T03:18:46.152Z,100
2023-02-02T03:19:45.897Z,100
2023-02-02T03:20:45.897Z,100
2023-02-02T03:21:45.926Z,100
2023-02-02T03:22:46.143Z,100
2023-02-02T03:23:45.901Z,100
2023-02-02T03:24:45.865Z,100
2023-02-02T03:25:48.199Z,100
2023-02-02T03:26:45.951Z,100
2023-02-02T03:27:46.145Z,100
2023-02-02T03:28:45.956Z,100
2023-02-02T03:29:45.849Z,100
2023-02-02T03:30:46.125Z,100
2023-02-02T03:31:45.882Z,100
2023-02-02T03:32:46.064Z,100
2023-02-02T03:33:46.154Z,100
2023-02-02T03:34:45.918Z,100
2023-02-02T03:35:45.855Z,100
2023-02-02T03:36:48.148Z,100
2023-02-02T03:37:46.144Z,100
2023-02-02T03:38:45.929Z,100
2023-02-02T03:39:45.789Z,100
2023-02-02T03:40:45.877Z,100
2023-02-02T03:41:45.794Z,100
2023-02-02T03:42:46.155Z,100
2023-02-02T03:43:45.898Z,100
2023-02-02T03:44:45.932Z,100
2023-02-02T03:45:45.867Z,100
2023-02-02T03:46:45.828Z,100
2023-02-02T03:47:50.632Z,100
2023-02-02T03:48:46.154Z,100
2023-02-02T03:49:45.816Z,100
2023-02-02T03:50:45.905Z,100
2023-02-02T03:51:45.912Z,100
2023-02-02T03:52:46.151Z,100
2023-02-02T03:53:45.775Z,100
2023-02-02T03:54:45.908Z,100
2023-02-02T03:55:45.894Z,100
2023-02-02T03:56:45.840Z,100
2023-02-02T03:57:46.144Z,100
2023-02-02T03:58:48.232Z,100
2023-02-02T03:59:45.906Z,100
2023-02-02T04:00:45.825Z,100
2023-02-02T04:01:45.936Z,100
2023-02-02T04:02:46.154Z,100
2023-02-02T04:03:46.150Z,100
2023-02-02T04:04:45.930Z,100
2023-02-02T04:05:45.902Z,100
2023-02-02T04:06:45.800Z,100
2023-02-02T04:07:46.147Z,100
2023-02-02T04:08:45.886Z,100
2023-02-02T04:09:48.157Z,100
2023-02-02T04:10:45.818Z,100
2023-02-02T04:11:45.797Z,100
2023-02-02T04:12:45.903Z,100
2023-02-02T04:13:45.930Z,100
2023-02-02T04:14:45.787Z,100
2023-02-02T04:15:45.898Z,100
2023-02-02T04:16:45.929Z,100
2023-02-02T04:17:46.149Z,100
2023-02-02T04:18:46.152Z,100
2023-02-02T04:19:45.831Z,100
2023-02-02T04:20:48.177Z,100
2023-02-02T04:21:45.858Z,100
2023-02-02T04:22:46.151Z,100
2023-02-02T04:23:45.904Z,100
2023-02-02T04:24:45.892Z,100
2023-02-02T04:25:45.806Z,100
2023-02-02T04:26:46.294Z,100
2023-02-02T04:27:46.158Z,100
2023-02-02T04:28:45.943Z,100
2023-02-02T04:29:45.823Z,100
2023-02-02T04:30:45.868Z,100
2023-02-02T04:31:48.274Z,100
2023-02-02T04:32:46.155Z,100
2023-02-02T04:33:46.148Z,100
2023-02-02T04:34:45.784Z,100
2023-02-02T04:35:45.864Z,100
2023-02-02T04:36:45.876Z,100
2023-02-02T04:37:46.153Z,100
2023-02-02T04:38:45.802Z,100
2023-02-02T04:39:45.843Z,100
2023-02-02T04:40:45.931Z,100
2023-02-02T04:41:45.924Z,100
2023-02-02T04:42:50.613Z,100
2023-02-02T04:43:45.799Z,100
2023-02-02T04:44:45.880Z,100
2023-02-02T04:45:45.970Z,100
2023-02-02T04:46:45.888Z,100
2023-02-02T04:47:45.899Z,100
2023-02-02T04:48:46.146Z,100
2023-02-02T04:49:45.780Z,100
2023-02-02T04:50:45.914Z,100
2023-02-02T04:51:45.933Z,100
2023-02-02T04:52:46.144Z,99.958984375
2023-02-02T04:53:48.232Z,99.6015625
2023-02-02T04:54:45.908Z,99.359375
2023-02-02T04:55:45.910Z,99.48046875
2023-02-02T04:56:45.894Z,99.5927734375
2023-02-02T04:57:46.391Z,99.650390625
2023-02-02T04:58:45.916Z,99.130859375
2023-02-02T04:59:45.867Z,98.9208984375
2023-02-02T05:00:45.965Z,98.998046875
2023-02-02T05:01:45.870Z,98.6943359375
2023-02-02T05:02:46.147Z,98.736328125
2023-02-02T05:03:46.350Z,98.9013671875
2023-02-02T05:04:48.287Z,99.12890625
2023-02-02T05:05:45.938Z,99.361328125
2023-02-02T05:06:45.919Z,99.1083984375
2023-02-02T05:07:46.147Z,99.3818359375
2023-02-02T05:08:45.812Z,99.66796875
2023-02-02T05:09:45.881Z,100
2023-02-02T05:10:45.915Z,100
2023-02-02T05:11:45.873Z,100
2023-02-02T05:12:47.254Z,100
2023-02-02T05:13:45.859Z,100
2023-02-02T05:14:45.908Z,100
2023-02-02T05:15:48.225Z,100
2023-02-02T05:16:46.058Z,100
2023-02-02T05:17:46.160Z,100
2023-02-02T05:18:46.152Z,100
2023-02-02T05:19:45.862Z,100
2023-02-02T05:20:45.947Z,100
2023-02-02T05:21:45.818Z,100
2023-02-02T05:22:46.154Z,100
2023-02-02T05:23:45.793Z,100
2023-02-02T05:24:45.815Z,100
2023-02-02T05:25:45.895Z,100
2023-02-02T05:26:48.246Z,100
2023-02-02T05:27:45.919Z,100
2023-02-02T05:28:45.894Z,100
2023-02-02T05:29:45.820Z,100
2023-02-02T05:30:45.841Z,100
2023-02-02T05:31:45.962Z,100
2023-02-02T05:32:45.935Z,100
2023-02-02T05:33:46.154Z,100
2023-02-02T05:34:45.812Z,100
2023-02-02T05:35:45.844Z,100
2023-02-02T05:36:45.933Z,100
2023-02-02T05:37:48.232Z,100
2023-02-02T05:38:46.172Z,100
2023-02-02T05:39:45.879Z,100
2023-02-02T05:40:45.780Z,100
2023-02-02T05:41:45.937Z,100
2023-02-02T05:42:45.939Z,100
2023-02-02T05:43:45.798Z,100
2023-02-02T05:44:46.150Z,100
2023-02-02T05:45:45.889Z,100
2023-02-02T05:46:45.853Z,100
2023-02-02T05:47:45.924Z,100
2023-02-02T05:48:50.548Z,100
2023-02-02T05:49:46.153Z,100
2023-02-02T05:50:45.783Z,100
2023-02-02T05:51:45.917Z,100
2023-02-02T05:52:45.909Z,100
2023-02-02T05:53:45.807Z,100
2023-02-02T05:54:46.164Z,100
2023-02-02T05:55:45.899Z,100
2023-02-02T05:56:45.896Z,100
2023-02-02T05:57:45.830Z,100
2023-02-02T05:58:45.808Z,100
2023-02-02T05:59:50.594Z,100
2023-02-02T06:00:45.861Z,100
2023-02-02T06:01:45.802Z,100
2023-02-02T06:02:45.924Z,100
2023-02-02T06:03:46.224Z,100
2023-02-02T06:04:46.152Z,100
2023-02-02T06:05:45.781Z,100
2023-02-02T06:06:45.777Z,100
2023-02-02T06:07:45.896Z,100
2023-02-02T06:08:45.812Z,100
2023-02-02T06:09:46.153Z,100
2023-02-02T06:10:48.155Z,100
2023-02-02T06:11:45.793Z,100
2023-02-02T06:12:45.937Z,100
2023-02-02T06:13:46.228Z,100
2023-02-02T06:14:45.952Z,100
2023-02-02T06:15:46.165Z,100
2023-02-02T06:16:45.817Z,100
2023-02-02T06:17:45.928Z,100
2023-02-02T06:18:46.152Z,100
2023-02-02T06:19:45.939Z,100
2023-02-02T06:20:45.765Z,100
2023-02-02T06:21:48.122Z,100
2023-02-02T06:22:45.797Z,100
2023-02-02T06:23:46.094Z,100
2023-02-02T06:24:45.800Z,100
2023-02-02T06:25:46.276Z,100
2023-02-02T06:26:45.874Z,100
2023-02-02T06:27:45.819Z,100
2023-02-02T06:28:45.947Z,100
2023-02-02T06:29:45.781Z,100
2023-02-02T06:30:46.020Z,100
2023-02-02T06:31:45.995Z,100
2023-02-02T06:32:48.228Z,100
2023-02-02T06:33:46.155Z,100
2023-02-02T06:34:45.848Z,100
2023-02-02T06:35:46.204Z,100
2023-02-02T06:36:45.859Z,100
2023-02-02T06:37:45.860Z,100
2023-02-02T06:38:45.805Z,100
2023-02-02T06:39:45.924Z,100
2023-02-02T06:40:46.150Z,100
2023-02-02T06:41:45.827Z,100
2023-02-02T06:42:45.858Z,100
2023-02-02T06:43:48.120Z,100
2023-02-02T06:44:45.887Z,100
2023-02-02T06:45:46.147Z,100
2023-02-02T06:46:45.812Z,100
2023-02-02T06:47:45.798Z,100
2023-02-02T06:48:45.918Z,100
2023-02-02T06:49:46.207Z,100
2023-02-02T06:50:45.833Z,100
2023-02-02T06:51:46.165Z,100
2023-02-02T06:52:45.925Z,100
2023-02-02T06:53:45.941Z,100
2023-02-02T06:54:48.256Z,100
2023-02-02T06:55:45.934Z,100
2023-02-02T06:56:45.920Z,100
2023-02-02T06:57:45.823Z,100
2023-02-02T06:58:45.933Z,100
2023-02-02T06:59:45.797Z,100
2023-02-02T07:00:45.821Z,100
2023-02-02T07:01:45.822Z,100
2023-02-02T07:02:45.995Z,100
2023-02-02T07:03:45.875Z,100
2023-02-02T07:04:46.160Z,100
2023-02-02T07:05:48.203Z,100
2023-02-02T07:06:46.162Z,100
2023-02-02T07:07:45.862Z,100
2023-02-02T07:08:45.911Z,100
2023-02-02T07:09:45.909Z,100
2023-02-02T07:11:11.547Z,99.8505859375
2023-02-02T07:11:46.156Z,99.3828125
2023-02-02T07:12:45.936Z,99.0810546875
2023-02-02T07:13:45.907Z,98.5302734375
2023-02-02T07:14:45.869Z,98.240234375
2023-02-02T07:15:45.878Z,98.3046875
2023-02-02T07:16:50.674Z,97.3427734375
2023-02-02T07:17:45.791Z,97.1064453125
2023-02-02T07:18:45.919Z,96.6181640625
2023-02-02T07:19:46.150Z,96.3701171875
2023-02-02T07:20:45.924Z,95.8447265625
2023-02-02T07:21:46.163Z,95.8486328125
2023-02-02T07:22:45.837Z,95.748046875
2023-02-02T07:23:45.910Z,95.548828125
2023-02-02T07:24:45.852Z,95.3828125
2023-02-02T07:25:45.818Z,95.5673828125
2023-02-02T07:26:45.979Z,94.890625
2023-02-02T07:27:50.646Z,95.4169921875
2023-02-02T07:28:45.911Z,94.787109375
2023-02-02T07:29:45.916Z,94.6865234375
2023-02-02T07:30:45.958Z,94.3916015625
2023-02-02T07:31:46.059Z,94.091796875
2023-02-02T07:32:45.866Z,94.08203125
2023-02-02T07:33:45.934Z,93.966796875
2023-02-02T07:34:46.152Z,94.017578125
2023-02-02T07:35:45.925Z,94.115234375
2023-02-02T07:36:45.884Z,94.1904296875
2023-02-02T07:37:46.145Z,93.9189453125
2023-02-02T07:38:48.302Z,93.5263671875
2023-02-02T07:39:45.806Z,92.888671875
2023-02-02T07:40:45.872Z,92.7158203125
2023-02-02T07:41:45.774Z,93.455078125
2023-02-02T07:42:46.459Z,93.3349609375
2023-02-02T07:43:45.819Z,93.2197265625
2023-02-02T07:44:45.957Z,93.4404296875
2023-02-02T07:45:45.896Z,93.4404296875
2023-02-02T07:46:45.945Z,94.4169921875
2023-02-02T07:47:46.170Z,95.3447265625
2023-02-02T07:48:45.800Z,95.802734375
2023-02-02T07:49:50.671Z,96.794921875
2023-02-02T07:50:45.896Z,97.3818359375
2023-02-02T07:51:47.750Z,97.521484375
2023-02-02T07:52:46.161Z,97.9111328125
2023-02-02T07:53:45.963Z,96.7783203125
2023-02-02T07:54:45.930Z,96.568359375
2023-02-02T07:55:45.852Z,96.5087890625
2023-02-02T07:56:45.930Z,96.5517578125
2023-02-02T07:57:46.160Z,96.9228515625
2023-02-02T07:58:45.947Z,96.16796875
2023-02-02T07:59:45.876Z,95.8935546875
2023-02-02T08:00:48.262Z,96.1748046875
2023-02-02T08:01:45.912Z,96.7021484375
2023-02-02T08:02:46.182Z,96.3818359375
2023-02-02T08:03:45.961Z,96.109375
2023-02-02T08:04:46.156Z,96.1416015625
2023-02-02T08:05:45.857Z,96.5771484375
2023-02-02T08:06:45.905Z,96.1865234375
2023-02-02T08:07:46.163Z,96.130859375
2023-02-02T08:08:45.921Z,95.7490234375
2023-02-02T08:09:45.797Z,95.80078125
2023-02-02T08:10:45.859Z,95.2333984375
2023-02-02T08:11:48.143Z,94.4287109375
2023-02-02T08:12:45.897Z,93.490234375
2023-02-02T08:13:46.161Z,93.138671875
2023-02-02T08:14:45.796Z,93.3349609375
2023-02-02T08:15:45.874Z,93.412109375
2023-02-02T08:16:45.948Z,92.974609375
2023-02-02T08:17:45.830Z,92.677734375
2023-02-02T08:18:46.163Z,91.7607421875
2023-02-02T08:19:46.163Z,91.5615234375
2023-02-02T08:20:45.850Z,91.27734375
2023-02-02T08:21:45.830Z,90.4853515625
2023-02-02T08:22:48.296Z,90.501953125
2023-02-02T08:23:46.157Z,90.470703125
2023-02-02T08:24:45.811Z,90.4482421875
2023-02-02T08:25:45.873Z,90.232421875
2023-02-02T08:26:45.837Z,90.357421875
2023-02-02T08:27:45.899Z,90.49609375
2023-02-02T08:28:46.152Z,90.060546875
2023-02-02T08:29:45.925Z,89.9267578125
2023-02-02T08:30:46.057Z,89.5078125
2023-02-02T08:31:45.933Z,89.6220703125
2023-02-02T08:32:45.881Z,89.9443359375
2023-02-02T08:33:50.626Z,90.1806640625
2023-02-02T08:34:46.149Z,89.46875
2023-02-02T08:35:45.920Z,88.9580078125
2023-02-02T08:36:45.777Z,88.978515625
2023-02-02T08:37:45.937Z,88.966796875
2023-02-02T08:38:46.164Z,88.87890625
2023-02-02T08:39:45.878Z,88.203125
2023-02-02T08:40:45.902Z,88.576171875
2023-02-02T08:41:45.803Z,88.6162109375
2023-02-02T08:42:45.803Z,88.44140625
2023-02-02T08:43:46.167Z,88.4814453125
2023-02-02T08:46:01.605Z,87.6064453125
2023-02-02T08:46:13.248Z,87.75
2023-02-02T08:46:45.889Z,87.171875
2023-02-02T08:47:45.941Z,86.1328125
2023-02-02T08:48:46.162Z,86.064453125
2023-02-02T08:49:46.160Z,85.751953125
2023-02-02T08:50:45.941Z,85.61328125
2023-02-02T08:51:45.811Z,85.6435546875
2023-02-02T08:52:45.921Z,85.228515625
2023-02-02T08:53:46.164Z,85.41015625
2023-02-02T08:54:45.920Z,85.2744140625
2023-02-02T08:55:48.188Z,84.998046875
2023-02-02T08:56:45.789Z,84.787109375
2023-02-02T08:57:45.887Z,84.3173828125
2023-02-02T08:58:46.308Z,84.2392578125
2023-02-02T08:59:45.873Z,84.2001953125
2023-02-02T09:00:45.953Z,83.5869140625
2023-02-02T09:01:45.808Z,83.3349609375
2023-02-02T09:02:45.789Z,82.3876953125
2023-02-02T09:03:45.794Z,82.240234375
2023-02-02T09:04:46.156Z,81.7041015625
2023-02-02T09:05:45.864Z,81.93359375
2023-02-02T09:06:48.147Z,81.46875
2023-02-02T09:07:45.883Z,81.2001953125
2023-02-02T09:08:45.885Z,81.4267578125
2023-02-02T09:09:46.155Z,81.3349609375
2023-02-02T09:10:45.791Z,81.0615234375
2023-02-02T09:11:45.859Z,81.8828125
2023-02-02T09:12:45.784Z,82.5625
2023-02-02T09:13:45.901Z,82.791015625
2023-02-02T09:14:46.173Z,83.5
2023-02-02T09:15:45.881Z,83.986328125
2023-02-02T09:16:46.057Z,83.5556640625
2023-02-02T09:17:48.196Z,82.9462890625
2023-02-02T09:18:45.807Z,82.65625
2023-02-02T09:19:46.151Z,82.8154296875
2023-02-02T09:20:45.872Z,83.3408203125
2023-02-02T09:21:45.891Z,83.9296875
2023-02-02T09:22:45.842Z,84.166015625
2023-02-02T09:23:45.945Z,83.9716796875
2023-02-02T09:24:46.148Z,84.138671875
2023-02-02T09:25:45.914Z,84.392578125
2023-02-02T09:26:45.947Z,84.4765625
2023-02-02T09:27:45.908Z,84.6982421875
2023-02-02T09:28:48.211Z,84.5263671875
2023-02-02T09:29:45.910Z,83.892578125
2023-02-02T09:30:45.873Z,83.8935546875
2023-02-02T09:31:46.028Z,83.494140625
2023-02-02T09:32:45.905Z,83.2138671875
2023-02-02T09:33:45.880Z,83.1357421875
2023-02-02T09:34:46.156Z,82.69921875
2023-02-02T09:35:46.173Z,82.3291015625
2023-02-02T09:36:45.936Z,81.9658203125
2023-02-02T09:37:45.797Z,81.7099609375
2023-02-02T09:38:45.930Z,81.7529296875
2023-02-02T09:39:48.146Z,81.615234375
2023-02-02T09:40:46.156Z,81.458984375
2023-02-02T09:41:45.818Z,81.5380859375
2023-02-02T09:42:45.840Z,81.7900390625
2023-02-02T09:43:45.823Z,81.8154296875
2023-02-02T09:44:45.848Z,81.9736328125
2023-02-02T09:45:46.206Z,82.2890625
2023-02-02T09:46:45.926Z,82.58984375
2023-02-02T09:47:46.134Z,82.64453125
2023-02-02T09:48:45.915Z,82.6064453125
2023-02-02T09:49:46.167Z,81.9814453125
2023-02-02T09:50:50.595Z,82.04296875
2023-02-02T09:51:45.827Z,82.25390625
2023-02-02T09:52:45.831Z,82.6728515625
2023-02-02T09:53:54.814Z,82.9013671875
2023-02-02T09:54:45.943Z,83.0302734375
2023-02-02T09:55:46.152Z,83.091796875
2023-02-02T09:56:45.905Z,83.216796875
2023-02-02T09:57:45.901Z,83.6640625
2023-02-02T09:58:45.831Z,83.0537109375
2023-02-02T09:59:45.946Z,83.3095703125
2023-02-02T10:00:46.164Z,83.50390625
2023-02-02T10:01:48.221Z,84.251953125
2023-02-02T10:02:45.915Z,84.0634765625
2023-02-02T10:03:45.872Z,84.1767578125
2023-02-02T10:04:46.152Z,84.1845703125
2023-02-02T10:05:46.158Z,84.2431640625
2023-02-02T10:06:45.911Z,83.697265625
2023-02-02T10:07:45.868Z,83.982421875
2023-02-02T10:08:45.896Z,84.5576171875
2023-02-02T10:09:45.872Z,84.7177734375
2023-02-02T10:10:46.179Z,85.2451171875
2023-02-02T10:11:45.835Z,84.99609375
2023-02-02T10:12:48.251Z,85.2734375
2023-02-02T10:13:45.816Z,85.37890625
2023-02-02T10:14:45.922Z,85.248046875
2023-02-02T10:15:46.282Z,85.1630859375
2023-02-02T10:16:45.835Z,85.46484375
2023-02-02T10:17:45.849Z,86.392578125
2023-02-02T10:18:45.810Z,86.486328125
2023-02-02T10:19:46.143Z,87.072265625
2023-02-02T10:20:46.150Z,86.451171875
2023-02-02T10:21:45.838Z,86.939453125
2023-02-02T10:22:45.826Z,87.77734375
2023-02-02T10:23:48.240Z,88.83203125
2023-02-02T10:24:45.814Z,89.1904296875
2023-02-02T10:25:46.145Z,89.1630859375
2023-02-02T10:26:45.814Z,89.4619140625
2023-02-02T10:27:46.448Z,89.8388671875
2023-02-02T10:28:45.863Z,89.5712890625
2023-02-02T10:29:49.110Z,89.6396484375
2023-02-02T10:30:46.065Z,89.3330078125
2023-02-02T10:31:46.247Z,89.849609375
2023-02-02T10:32:45.881Z,88.8759765625
2023-02-02T10:33:45.919Z,89.0107421875
2023-02-02T10:34:55.560Z,89.240234375
2023-02-02T10:35:45.871Z,88.90625
2023-02-02T10:36:46.161Z,88.2958984375
2023-02-02T10:37:45.793Z,88.6708984375
2023-02-02T10:38:45.830Z,88.6708984375
2023-02-02T10:39:45.966Z,87.2392578125
2023-02-02T10:40:45.872Z,86.068359375
2023-02-02T10:41:46.214Z,83.9443359375
2023-02-02T10:42:45.916Z,83.7822265625
2023-02-02T10:43:45.876Z,83.1826171875
2023-02-02T10:44:45.930Z,83.755859375
2023-02-02T10:45:48.345Z,84.22265625
2023-02-02T10:46:46.151Z,85.205078125
2023-02-02T10:47:46.001Z,85.5263671875
2023-02-02T10:48:45.813Z,84.9765625
2023-02-02T10:49:46.160Z,84.4970703125
2023-02-02T10:50:45.912Z,86.1904296875
2023-02-02T10:51:46.151Z,86.38671875
2023-02-02T10:52:45.815Z,86.474609375
2023-02-02T10:53:45.771Z,85.115234375
2023-02-02T10:54:56.034Z,86.6494140625
2023-02-02T10:55:45.947Z,87.9140625
2023-02-02T10:56:50.660Z,88.748046875
2023-02-02T10:57:45.908Z,89.4990234375
2023-02-02T10:58:45.928Z,88.0400390625
2023-02-02T10:59:45.832Z,88.61328125
2023-02-02T11:00:45.798Z,87.779296875
2023-02-02T11:01:46.242Z,86.78515625
2023-02-02T11:02:45.920Z,86.265625
2023-02-02T11:03:45.921Z,86.2783203125
2023-02-02T11:04:45.937Z,86.8095703125
2023-02-02T11:05:45.811Z,87.6845703125
2023-02-02T11:06:46.166Z,88.0224609375
2023-02-02T11:07:48.204Z,87.3046875
2023-02-02T11:08:45.864Z,85.986328125
2023-02-02T11:09:45.851Z,86.8740234375
2023-02-02T11:10:45.942Z,86.0595703125
2023-02-02T11:11:46.153Z,84.7587890625
2023-02-02T11:12:45.878Z,83.8515625
2023-02-02T11:13:45.850Z,82.3251953125
2023-02-02T11:14:46.256Z,81.7041015625
2023-02-02T11:15:45.939Z,82.86328125
2023-02-02T11:16:46.183Z,83.607421875
2023-02-02T11:17:45.813Z,82.734375
2023-02-02T11:18:48.256Z,83.4951171875
2023-02-02T11:19:45.885Z,83.310546875
2023-02-02T11:20:46.158Z,85.0322265625
2023-02-02T11:21:46.158Z,85.958984375
2023-02-02T11:22:45.798Z,87.5244140625
2023-02-02T11:23:48.616Z,89.4326171875
2023-02-02T11:24:45.906Z,91.3583984375
2023-02-02T11:25:45.862Z,91.271484375
2023-02-02T11:26:46.209Z,91.2021484375
2023-02-02T11:27:45.852Z,92.9599609375
2023-02-02T11:28:45.875Z,92.4052734375
2023-02-02T11:29:48.221Z,92.654296875
2023-02-02T11:30:45.973Z,94.6064453125
2023-02-02T11:31:46.259Z,94.283203125
2023-02-02T11:32:45.920Z,94.2900390625
2023-02-02T11:33:45.857Z,94.76953125
2023-02-02T11:34:45.885Z,94.77734375